createdAt,value
2022-11-12T00:00:36.589Z,9.13
2022-11-12T00:03:02.840Z,9.31
2022-11-12T00:05:29.097Z,9.23
2022-11-12T00:07:55.356Z,9.22
2022-11-12T00:10:21.594Z,9.24
2022-11-12T00:12:47.851Z,9.25
2022-11-12T00:15:14.096Z,9.26
2022-11-12T00:17:40.363Z,9.33
2022-11-12T00:20:06.609Z,9.39
2022-11-12T00:22:32.856Z,9.37
2022-11-12T00:24:59.109Z,9.44
2022-11-12T00:27:25.367Z,9.49
2022-11-12T00:29:51.605Z,9.49
2022-11-12T00:32:17.850Z,9.54
2022-11-12T00:34:44.096Z,9.59
2022-11-12T00:37:10.351Z,9.64
2022-11-12T00:39:36.734Z,9.69
2022-11-12T00:42:02.980Z,9.74
2022-11-12T00:44:29.237Z,9.75
2022-11-12T00:46:55.489Z,9.76
2022-11-12T00:49:21.738Z,9.80
2022-11-12T00:51:47.991Z,9.86
2022-11-12T00:54:14.239Z,9.88
2022-11-12T00:56:40.486Z,9.88
2022-11-12T00:59:06.724Z,9.92
2022-11-12T01:01:33.002Z,9.87
2022-11-12T01:03:59.480Z,9.85
2022-11-12T01:06:25.806Z,9.92
2022-11-12T01:08:52.060Z,9.92
2022-11-12T01:11:18.301Z,9.94
2022-11-12T01:13:44.642Z,9.94
2022-11-12T01:16:10.901Z,9.96
2022-11-12T01:18:37.146Z,10.00
2022-11-12T01:21:03.390Z,10.03
2022-11-12T01:23:29.645Z,10.11
2022-11-12T01:25:55.885Z,10.17
2022-11-12T01:28:22.138Z,10.23
2022-11-12T01:30:48.396Z,10.22
2022-11-12T01:33:14.647Z,10.19
2022-11-12T01:35:40.896Z,10.26
2022-11-12T01:38:07.150Z,10.29
2022-11-12T01:40:33.408Z,10.26
2022-11-12T01:42:59.669Z,10.24
2022-11-12T01:45:25.924Z,10.24
2022-11-12T01:47:52.176Z,10.25
2022-11-12T01:50:18.435Z,10.23
2022-11-12T01:52:44.691Z,10.23
2022-11-12T01:55:10.948Z,10.30
2022-11-12T01:57:37.201Z,10.26
2022-11-12T02:00:03.487Z,10.25
2022-11-12T02:02:29.754Z,10.28
2022-11-12T02:04:56.023Z,10.27
2022-11-12T02:07:22.276Z,10.29
2022-11-12T02:09:48.601Z,10.31
2022-11-12T02:12:14.858Z,10.31
2022-11-12T02:14:41.099Z,10.38
2022-11-12T02:17:07.364Z,10.28
2022-11-12T02:19:33.610Z,10.27
2022-11-12T02:21:59.864Z,10.28
2022-11-12T02:24:26.111Z,10.29
2022-11-12T02:26:52.355Z,10.28
2022-11-12T02:29:18.607Z,10.27
2022-11-12T02:31:44.860Z,10.28
2022-11-12T02:34:11.116Z,10.26
2022-11-12T02:36:37.375Z,10.22
2022-11-12T02:39:03.630Z,10.27
2022-11-12T02:41:29.882Z,10.26
2022-11-12T02:43:56.126Z,10.28
2022-11-12T02:46:22.384Z,10.26
2022-11-12T02:48:48.642Z,10.32
2022-11-12T02:51:14.891Z,10.32
2022-11-12T02:53:41.137Z,10.29
2022-11-12T02:56:07.400Z,10.26
2022-11-12T02:58:33.653Z,10.31
2022-11-12T03:00:59.945Z,10.25
2022-11-12T03:03:26.232Z,10.25
2022-11-12T03:05:52.510Z,10.23
2022-11-12T03:08:18.765Z,10.25
2022-11-12T03:10:45.017Z,10.28
2022-11-12T03:13:11.267Z,10.30
2022-11-12T03:15:37.506Z,10.25
2022-11-12T03:18:03.760Z,10.26
2022-11-12T03:20:30.018Z,10.29
2022-11-12T03:22:56.281Z,10.26
2022-11-12T03:25:22.531Z,10.24
2022-11-12T03:27:48.782Z,10.24
2022-11-12T03:30:15.037Z,10.26
2022-11-12T03:32:41.287Z,10.27
2022-11-12T03:35:07.539Z,10.22
2022-11-12T03:37:33.795Z,10.23
2022-11-12T03:40:00.048Z,10.21
2022-11-12T03:42:26.301Z,10.24
2022-11-12T03:44:52.559Z,10.21
2022-11-12T03:47:18.807Z,10.21
2022-11-12T03:49:45.070Z,10.21
2022-11-12T03:52:11.321Z,10.18
2022-11-12T03:54:37.563Z,10.20
2022-11-12T03:57:03.810Z,10.18
2022-11-12T03:59:30.066Z,10.25
2022-11-12T04:01:56.324Z,10.25
2022-11-12T04:04:22.573Z,10.24
2022-11-12T04:06:48.855Z,10.25
2022-11-12T04:09:15.139Z,10.28
2022-11-12T04:11:41.377Z,10.27
2022-11-12T04:14:07.618Z,10.26
2022-11-12T04:16:33.879Z,10.29
2022-11-12T04:19:00.135Z,10.26
2022-11-12T04:21:26.379Z,10.26
2022-11-12T04:23:52.622Z,10.26
2022-11-12T04:26:18.861Z,10.21
2022-11-12T04:28:45.109Z,10.17
2022-11-12T04:31:11.345Z,10.20
2022-11-12T04:33:37.586Z,10.15
2022-11-12T04:36:03.842Z,10.21
2022-11-12T04:38:30.082Z,10.16
2022-11-12T04:40:56.321Z,10.22
2022-11-12T04:43:22.572Z,10.18
2022-11-12T04:45:48.821Z,10.17
2022-11-12T04:48:15.071Z,10.14
2022-11-12T04:50:41.316Z,10.05
2022-11-12T04:53:07.558Z,10.14
2022-11-12T04:55:33.805Z,10.20
2022-11-12T04:58:01.008Z,10.17
2022-11-12T05:00:27.411Z,10.11
2022-11-12T05:02:53.649Z,10.09
2022-11-12T05:05:19.892Z,10.13
2022-11-12T05:07:46.141Z,10.11
2022-11-12T05:10:12.392Z,10.12
2022-11-12T05:12:38.644Z,10.18
2022-11-12T05:15:04.900Z,10.21
2022-11-12T05:17:31.159Z,10.25
2022-11-12T05:19:57.403Z,10.28
2022-11-12T05:22:42.529Z,10.18
2022-11-12T05:25:09.896Z,10.24
2022-11-12T05:27:36.145Z,10.30
2022-11-12T05:30:02.391Z,10.23
2022-11-12T05:32:28.670Z,10.29
2022-11-12T05:34:54.920Z,10.20
2022-11-12T05:37:21.157Z,10.23
2022-11-12T05:39:47.411Z,10.17
2022-11-12T05:42:14.503Z,10.18
2022-11-12T05:44:40.863Z,10.14
2022-11-12T05:47:07.206Z,10.19
2022-11-12T05:49:33.450Z,10.06
2022-11-12T05:51:59.703Z,10.07
2022-11-12T05:54:25.967Z,10.05
2022-11-12T05:56:52.210Z,10.13
2022-11-12T05:59:18.452Z,10.16
2022-11-12T06:01:44.715Z,10.23
2022-11-12T06:04:10.964Z,10.23
2022-11-12T06:06:37.278Z,10.22
2022-11-12T06:09:03.569Z,10.23
2022-11-12T06:11:29.821Z,10.22
2022-11-12T06:13:56.064Z,10.21
2022-11-12T06:16:22.305Z,10.26
2022-11-12T06:18:48.556Z,10.20
2022-11-12T06:21:14.802Z,10.30
2022-11-12T06:23:41.058Z,10.27
2022-11-12T06:26:07.302Z,10.31
2022-11-12T06:28:33.598Z,10.30
2022-11-12T06:30:59.992Z,10.33
2022-11-12T06:33:26.235Z,10.29
2022-11-12T06:35:52.497Z,10.25
2022-11-12T06:38:18.753Z,10.30
2022-11-12T06:40:45.002Z,10.38
2022-11-12T06:43:11.254Z,10.40
2022-11-12T06:45:37.498Z,10.41
2022-11-12T06:48:03.734Z,10.40
2022-11-12T06:50:29.997Z,10.36
2022-11-12T06:52:56.243Z,10.37
2022-11-12T06:55:22.496Z,10.44
2022-11-12T06:57:48.736Z,10.52
2022-11-12T07:00:14.982Z,10.55
2022-11-12T07:02:41.228Z,10.55
2022-11-12T07:05:07.470Z,10.45
2022-11-12T07:07:33.724Z,10.46
2022-11-12T07:09:59.976Z,10.50
2022-11-12T07:12:26.226Z,10.46
2022-11-12T07:14:52.480Z,10.41
2022-11-12T07:17:18.735Z,10.40
2022-11-12T07:19:44.980Z,10.42
2022-11-12T07:22:11.224Z,10.46
2022-11-12T07:24:37.575Z,10.42
2022-11-12T07:27:03.825Z,10.40
2022-11-12T07:29:46.793Z,10.41
2022-11-12T07:32:14.034Z,10.35
2022-11-12T07:34:40.287Z,10.37
2022-11-12T07:37:06.542Z,10.41
2022-11-12T07:39:32.797Z,10.48
2022-11-12T07:41:59.034Z,10.46
2022-11-12T07:44:25.287Z,10.43
2022-11-12T07:46:51.553Z,10.48
2022-11-12T07:49:17.793Z,10.48
2022-11-12T07:51:44.038Z,10.50
2022-11-12T07:54:10.289Z,10.48
2022-11-12T07:56:36.540Z,10.59
2022-11-12T07:59:02.891Z,10.61
2022-11-12T08:01:29.189Z,10.49
2022-11-12T08:03:55.488Z,10.47
2022-11-12T08:06:21.730Z,10.50
2022-11-12T08:08:47.990Z,10.53
2022-11-12T08:11:14.238Z,10.57
2022-11-12T08:13:40.482Z,10.62
2022-11-12T08:16:06.728Z,10.66
2022-11-12T08:18:32.992Z,10.65
2022-11-12T08:20:59.234Z,10.63
2022-11-12T08:23:25.479Z,10.61
2022-11-12T08:25:51.736Z,10.55
2022-11-12T08:28:17.978Z,10.63
2022-11-12T08:30:44.237Z,10.63
2022-11-12T08:33:10.487Z,10.68
2022-11-12T08:35:36.877Z,10.79
2022-11-12T08:38:03.119Z,10.70
2022-11-12T08:40:29.379Z,10.70
2022-11-12T08:42:55.628Z,10.69
2022-11-12T08:45:21.892Z,10.74
2022-11-12T08:47:48.144Z,10.73
2022-11-12T08:50:14.393Z,10.75
2022-11-12T08:52:40.635Z,10.79
2022-11-12T08:55:06.875Z,10.86
2022-11-12T08:57:33.223Z,10.94
2022-11-12T08:59:59.478Z,10.91
2022-11-12T09:02:25.734Z,10.95
2022-11-12T09:04:52.056Z,11.04
2022-11-12T09:07:48.082Z,11.10
2022-11-12T09:10:04.539Z,11.08
2022-11-12T09:12:30.800Z,11.09
2022-11-12T09:15:09.598Z,11.07
2022-11-12T09:17:43.350Z,11.11
2022-11-12T09:20:09.604Z,11.00
2022-11-12T09:22:35.851Z,11.02
2022-11-12T09:25:03.204Z,11.01
2022-11-12T09:27:29.445Z,10.97
2022-11-12T09:29:55.694Z,11.00
2022-11-12T09:32:22.043Z,10.90
2022-11-12T09:34:48.296Z,10.93
2022-11-12T09:37:14.538Z,11.03
2022-11-12T09:39:40.787Z,10.97
2022-11-12T09:42:07.032Z,11.04
2022-11-12T09:44:36.829Z,10.97
2022-11-12T09:47:03.320Z,10.93
2022-11-12T09:49:29.583Z,11.10
2022-11-12T09:51:55.836Z,11.00
2022-11-12T09:54:22.096Z,10.96
2022-11-12T09:56:48.348Z,10.98
2022-11-12T09:59:14.600Z,10.99
2022-11-12T10:01:40.872Z,10.91
2022-11-12T10:04:07.153Z,10.89
2022-11-12T10:06:33.497Z,10.95
2022-11-12T10:08:59.746Z,10.99
2022-11-12T10:11:25.996Z,10.95
2022-11-12T10:13:52.239Z,10.99
2022-11-12T10:16:18.478Z,11.09
2022-11-12T10:18:44.729Z,11.11
2022-11-12T10:21:10.975Z,11.13
2022-11-12T10:23:37.235Z,11.14
2022-11-12T10:26:03.478Z,11.31
2022-11-12T10:28:33.132Z,11.29
2022-11-12T10:31:01.955Z,11.30
2022-11-12T10:33:28.189Z,11.26
2022-11-12T10:35:54.440Z,11.17
2022-11-12T10:38:20.693Z,11.25
2022-11-12T10:40:47.038Z,11.33
2022-11-12T10:43:13.293Z,11.34
2022-11-12T10:45:39.547Z,11.43
2022-11-12T10:48:05.798Z,11.50
2022-11-12T10:50:32.045Z,11.54
2022-11-12T10:52:58.285Z,11.49
2022-11-12T10:55:24.526Z,11.50
2022-11-12T10:57:50.769Z,11.54
2022-11-12T11:00:17.114Z,11.54
2022-11-12T11:02:43.455Z,11.41
2022-11-12T11:05:09.712Z,11.40
2022-11-12T11:07:35.975Z,11.51
2022-11-12T11:10:02.229Z,11.52
2022-11-12T11:12:28.469Z,11.63
2022-11-12T11:14:54.709Z,11.70
2022-11-12T11:17:20.972Z,11.57
2022-11-12T11:19:47.235Z,11.55
2022-11-12T11:22:13.488Z,11.50
2022-11-12T11:24:39.740Z,11.56
2022-11-12T11:27:05.981Z,11.65
2022-11-12T11:29:32.323Z,11.80
2022-11-12T11:31:58.561Z,11.89
2022-11-12T11:34:24.802Z,12.00
2022-11-12T11:36:51.051Z,11.95
2022-11-12T11:39:17.301Z,11.93
2022-11-12T11:41:43.551Z,11.86
2022-11-12T11:44:13.766Z,11.87
2022-11-12T11:46:40.388Z,11.88
2022-11-12T11:49:06.634Z,11.95
2022-11-12T11:51:32.882Z,11.96
2022-11-12T11:53:59.133Z,11.94
2022-11-12T11:56:25.386Z,11.89
2022-11-12T11:58:51.623Z,12.04
2022-11-12T12:01:17.870Z,12.12
2022-11-12T12:03:44.235Z,12.11
2022-11-12T12:06:10.554Z,12.15
2022-11-12T12:08:36.803Z,12.10
2022-11-12T12:11:10.209Z,12.26
2022-11-12T12:13:36.469Z,12.22
2022-11-12T12:16:02.756Z,12.32
2022-11-12T12:18:29.461Z,12.31
2022-11-12T12:20:55.996Z,12.35
2022-11-12T12:23:22.246Z,12.30
2022-11-12T12:25:48.501Z,12.37
2022-11-12T12:28:14.754Z,12.34
2022-11-12T12:30:41.003Z,12.36
2022-11-12T12:33:07.260Z,12.26
2022-11-12T12:35:33.512Z,12.32
2022-11-12T12:37:59.764Z,12.29
2022-11-12T12:40:26.006Z,12.17
2022-11-12T12:42:52.249Z,12.12
2022-11-12T12:45:18.504Z,12.17
2022-11-12T12:47:44.913Z,12.07
2022-11-12T12:50:11.185Z,12.12
2022-11-12T12:52:37.437Z,12.22
2022-11-12T12:55:03.692Z,12.23
2022-11-12T12:57:29.953Z,12.20
2022-11-12T12:59:56.193Z,12.22
2022-11-12T13:02:22.436Z,12.28
2022-11-12T13:04:48.680Z,12.15
2022-11-12T13:07:14.947Z,12.12
2022-11-12T13:09:41.240Z,12.07
2022-11-12T13:12:07.477Z,12.12
2022-11-12T13:14:33.727Z,12.21
2022-11-12T13:16:59.975Z,12.11
2022-11-12T13:19:26.239Z,12.15
2022-11-12T13:21:52.493Z,12.07
2022-11-12T13:24:18.740Z,12.12
2022-11-12T13:26:44.992Z,12.10
2022-11-12T13:29:11.246Z,12.06
2022-11-12T13:31:37.489Z,12.13
2022-11-12T13:34:03.741Z,12.14
2022-11-12T13:36:29.985Z,12.12
2022-11-12T13:38:59.822Z,12.04
2022-11-12T13:41:27.432Z,11.96
2022-11-12T13:43:53.685Z,12.04
2022-11-12T13:46:19.945Z,12.01
2022-11-12T13:48:46.199Z,11.99
2022-11-12T13:51:12.460Z,12.05
2022-11-12T13:53:38.716Z,12.02
2022-11-12T13:56:04.965Z,11.97
2022-11-12T13:58:31.223Z,12.04
2022-11-12T14:00:57.520Z,11.99
2022-11-12T14:03:23.797Z,12.11
2022-11-12T14:05:50.057Z,12.03
2022-11-12T14:08:16.316Z,12.04
2022-11-12T14:10:46.132Z,12.10
2022-11-12T14:13:12.716Z,12.17
2022-11-12T14:15:38.974Z,12.01
2022-11-12T14:18:05.222Z,12.16
2022-11-12T14:20:31.479Z,12.05
2022-11-12T14:22:57.725Z,12.01
2022-11-12T14:25:23.976Z,12.06
2022-11-12T14:27:50.228Z,12.03
2022-11-12T14:30:16.474Z,11.97
2022-11-12T14:32:42.741Z,11.93
2022-11-12T14:35:08.992Z,11.94
2022-11-12T14:37:38.426Z,11.93
2022-11-12T14:40:09.066Z,11.95
2022-11-12T14:42:35.315Z,11.91
2022-11-12T14:45:01.572Z,11.91
2022-11-12T14:47:27.824Z,11.78
2022-11-12T14:49:54.087Z,11.86
2022-11-12T14:52:20.339Z,11.77
2022-11-12T14:54:46.579Z,11.85
2022-11-12T14:57:12.834Z,11.87
2022-11-12T14:59:39.176Z,11.85
2022-11-12T15:04:51.649Z,11.79
2022-11-12T15:07:17.942Z,11.85
2022-11-12T15:09:44.208Z,11.83
2022-11-12T15:12:10.465Z,11.84
2022-11-12T15:14:36.725Z,11.86
2022-11-12T15:17:02.975Z,11.93
2022-11-12T15:19:29.273Z,11.85
2022-11-12T15:21:55.523Z,11.89
2022-11-12T15:24:21.766Z,11.79
2022-11-12T15:26:48.016Z,11.78
2022-11-12T15:29:14.258Z,11.75
2022-11-12T15:31:40.504Z,11.62
2022-11-12T15:34:06.756Z,11.62
2022-11-12T15:36:33.003Z,11.66
2022-11-12T15:38:59.251Z,11.64
2022-11-12T15:41:25.509Z,11.83
2022-11-12T15:43:51.749Z,11.77
2022-11-12T15:46:18.000Z,11.72
2022-11-12T15:48:44.250Z,11.68
2022-11-12T15:51:10.501Z,11.72
2022-11-12T15:53:36.813Z,11.64
2022-11-12T15:56:03.057Z,11.59
2022-11-12T15:58:29.302Z,11.56
2022-11-12T16:00:55.578Z,11.57
2022-11-12T16:03:21.881Z,11.53
2022-11-12T16:05:48.140Z,11.52
2022-11-12T16:08:14.390Z,11.59
2022-11-12T16:10:40.653Z,11.56
2022-11-12T16:13:06.903Z,11.51
2022-11-12T16:15:33.141Z,11.48
2022-11-12T16:17:59.390Z,11.46
2022-11-12T16:20:25.631Z,11.55
2022-11-12T16:22:51.886Z,11.59
2022-11-12T16:25:18.130Z,11.51
2022-11-12T16:27:44.366Z,11.37
2022-11-12T16:30:10.618Z,11.44
2022-11-12T16:32:36.862Z,11.39
2022-11-12T16:35:03.130Z,11.29
2022-11-12T16:37:29.377Z,11.20
2022-11-12T16:39:55.619Z,11.20
2022-11-12T16:42:21.870Z,11.36
2022-11-12T16:44:48.118Z,11.23
2022-11-12T16:47:14.376Z,11.22
2022-11-12T16:49:40.623Z,11.21
2022-11-12T16:52:06.863Z,11.13
2022-11-12T16:54:33.122Z,11.25
2022-11-12T16:56:59.373Z,11.15
2022-11-12T16:59:25.614Z,11.19
2022-11-12T17:01:51.862Z,11.11
2022-11-12T17:04:18.124Z,11.10
2022-11-12T17:06:44.438Z,11.10
2022-11-12T17:09:10.699Z,11.04
2022-11-12T17:11:36.952Z,11.05
2022-11-12T17:14:03.266Z,11.06
2022-11-12T17:16:29.527Z,11.01
2022-11-12T17:18:55.774Z,10.98
2022-11-12T17:21:22.014Z,10.90
2022-11-12T17:23:48.264Z,10.95
2022-11-12T17:26:14.527Z,11.01
2022-11-12T17:28:40.785Z,11.10
2022-11-12T17:31:07.044Z,11.02
2022-11-12T17:33:33.322Z,10.89
2022-11-12T17:35:59.571Z,10.87
2022-11-12T17:38:25.815Z,10.96
2022-11-12T17:40:52.072Z,10.98
2022-11-12T17:43:18.325Z,10.93
2022-11-12T17:45:44.567Z,10.85
2022-11-12T17:48:10.818Z,10.94
2022-11-12T17:50:37.065Z,10.85
2022-11-12T17:53:03.323Z,10.84
2022-11-12T17:55:29.577Z,10.82
2022-11-12T17:57:55.821Z,10.81
2022-11-12T18:00:22.072Z,10.73
2022-11-12T18:02:48.315Z,10.70
2022-11-12T18:05:14.563Z,10.66
2022-11-12T18:07:40.820Z,10.63
2022-11-12T18:10:07.066Z,10.62
2022-11-12T18:12:33.313Z,10.59
2022-11-12T18:14:59.579Z,10.58
2022-11-12T18:17:25.854Z,10.53
2022-11-12T18:19:52.121Z,10.50
2022-11-12T18:22:18.366Z,10.52
2022-11-12T18:24:44.608Z,10.58
2022-11-12T18:27:10.854Z,10.52
2022-11-12T18:29:37.103Z,10.55
2022-11-12T18:32:03.361Z,10.60
2022-11-12T18:34:29.616Z,10.48
2022-11-12T18:36:55.868Z,10.42
2022-11-12T18:39:22.123Z,10.34
2022-11-12T18:41:48.369Z,10.30
2022-11-12T18:44:14.625Z,10.30
2022-11-12T18:46:40.881Z,10.35
2022-11-12T18:49:07.132Z,10.46
2022-11-12T18:51:33.379Z,10.32
2022-11-12T18:53:59.645Z,10.35
2022-11-12T18:56:25.904Z,10.39
2022-11-12T18:58:52.163Z,10.44
2022-11-12T19:01:18.437Z,10.32
2022-11-12T19:03:44.766Z,10.30
2022-11-12T19:06:11.016Z,10.44
2022-11-12T19:08:37.272Z,10.32
2022-11-12T19:11:03.519Z,10.25
2022-11-12T19:13:30.093Z,10.19
2022-11-12T19:15:56.579Z,10.27
2022-11-12T19:18:22.818Z,10.17
2022-11-12T19:20:49.087Z,10.17
2022-11-12T19:23:15.373Z,10.16
2022-11-12T19:25:41.618Z,10.11
2022-11-12T19:28:07.880Z,10.12
2022-11-12T19:30:34.153Z,10.22
2022-11-12T19:33:00.402Z,10.02
2022-11-12T19:35:26.655Z,10.04
2022-11-12T19:37:52.919Z,10.06
2022-11-12T19:40:19.195Z,10.06
2022-11-12T19:42:45.458Z,10.06
2022-11-12T19:45:11.708Z,10.14
2022-11-12T19:47:37.949Z,10.13
2022-11-12T19:50:04.192Z,10.08
2022-11-12T19:52:30.443Z,10.07
2022-11-12T19:54:56.699Z,10.04
2022-11-12T19:57:22.940Z,10.11
2022-11-12T19:59:49.199Z,10.13
2022-11-12T20:02:15.456Z,10.14
2022-11-12T20:04:41.724Z,10.09
2022-11-12T20:07:08.031Z,9.90
2022-11-12T20:09:34.338Z,9.88
2022-11-12T20:12:00.581Z,9.81
2022-11-12T20:14:26.894Z,9.88
2022-11-12T20:16:53.136Z,9.82
2022-11-12T20:19:19.393Z,9.88
2022-11-12T20:21:45.634Z,9.78
2022-11-12T20:24:11.879Z,9.90
2022-11-12T20:26:38.126Z,9.87
2022-11-12T20:29:04.371Z,9.77
2022-11-12T20:31:30.624Z,9.83
2022-11-12T20:33:56.871Z,9.86
2022-11-12T20:36:23.216Z,9.80
2022-11-12T20:38:49.475Z,9.87
2022-11-12T20:41:15.727Z,9.78
2022-11-12T20:43:41.985Z,9.89
2022-11-12T20:46:08.234Z,9.88
2022-11-12T20:48:36.766Z,9.97
2022-11-12T20:51:22.562Z,9.96
2022-11-12T20:53:51.560Z,9.89
2022-11-12T20:56:20.834Z,9.97
2022-11-12T20:58:47.073Z,10.01
2022-11-12T21:01:13.361Z,9.99
2022-11-12T21:03:39.629Z,10.08
2022-11-12T21:06:05.867Z,9.94
2022-11-12T21:08:32.128Z,9.88
2022-11-12T21:10:58.384Z,9.81
2022-11-12T21:13:24.636Z,9.89
2022-11-12T21:15:50.886Z,9.77
2022-11-12T21:18:17.141Z,9.80
2022-11-12T21:20:43.404Z,9.87
2022-11-12T21:23:09.646Z,9.85
2022-11-12T21:25:35.891Z,9.79
2022-11-12T21:28:02.144Z,9.77
2022-11-12T21:30:28.400Z,9.82
2022-11-12T21:32:54.651Z,9.89
2022-11-12T21:35:20.896Z,9.82
2022-11-12T21:37:47.147Z,9.83
2022-11-12T21:40:13.399Z,9.82
2022-11-12T21:42:39.651Z,9.79
2022-11-12T21:45:05.889Z,9.73
2022-11-12T21:47:32.145Z,9.82
2022-11-12T21:49:58.392Z,9.70
2022-11-12T21:52:24.647Z,9.68
2022-11-12T21:54:50.882Z,9.74
2022-11-12T21:57:18.896Z,9.71
2022-11-12T21:59:45.305Z,9.74
2022-11-12T22:02:11.652Z,9.92
2022-11-12T22:04:37.953Z,9.75
2022-11-12T22:07:04.309Z,9.84
2022-11-12T22:09:30.579Z,9.81
2022-11-12T22:11:56.817Z,9.89
2022-11-12T22:14:23.062Z,9.87
2022-11-12T22:16:49.300Z,9.87
2022-11-12T22:19:15.548Z,9.84
2022-11-12T22:21:41.803Z,9.88
2022-11-12T22:24:08.062Z,10.02
2022-11-12T22:26:34.315Z,9.96
2022-11-12T22:29:00.553Z,9.93
2022-11-12T22:31:26.793Z,9.94
2022-11-12T22:33:53.033Z,9.87
2022-11-12T22:36:19.275Z,9.91
2022-11-12T22:38:45.526Z,9.78
2022-11-12T22:41:11.775Z,9.81
2022-11-12T22:43:38.043Z,9.80
2022-11-12T22:46:04.301Z,9.72
2022-11-12T22:48:30.649Z,9.81
2022-11-12T22:50:56.994Z,9.69
2022-11-12T22:53:23.273Z,9.87
2022-11-12T22:55:49.520Z,9.79
2022-11-12T22:58:15.761Z,9.66
2022-11-12T23:00:42.007Z,9.73
2022-11-12T23:03:08.355Z,9.71
2022-11-12T23:05:34.594Z,9.61
2022-11-12T23:08:00.846Z,9.60
2022-11-12T23:10:27.116Z,9.65
2022-11-12T23:12:53.361Z,9.50
2022-11-12T23:15:19.612Z,9.50
2022-11-12T23:17:45.872Z,9.52
2022-11-12T23:20:12.110Z,9.60
2022-11-12T23:22:38.368Z,9.54
2022-11-12T23:25:04.616Z,9.51
2022-11-12T23:27:30.863Z,9.60
2022-11-12T23:29:57.107Z,9.66
2022-11-12T23:32:23.367Z,9.59
2022-11-12T23:34:49.615Z,9.53
2022-11-12T23:37:15.866Z,9.61
2022-11-12T23:39:42.112Z,9.58
2022-11-12T23:42:08.353Z,9.62
2022-11-12T23:44:34.599Z,9.61
2022-11-12T23:47:00.854Z,9.56
2022-11-12T23:49:27.105Z,9.64
2022-11-12T23:51:53.400Z,9.57
2022-11-12T23:54:19.642Z,9.49
2022-11-12T23:56:45.882Z,9.39
2022-11-12T23:59:12.138Z,9.44
